createdAt,value
2023-02-14T00:01:28.880Z,103223.47
2023-02-14T00:04:00.717Z,103221.88
2023-02-14T00:06:28.741Z,103224.59
2023-02-14T00:08:55.739Z,103223.75
2023-02-14T00:11:23.300Z,103217.66
2023-02-14T00:14:10.603Z,103225.75
2023-02-14T00:16:37.692Z,103221.41
2023-02-14T00:19:04.674Z,103223.22
2023-02-14T00:21:33.292Z,103218.81
2023-02-14T00:24:00.159Z,103220.66
2023-02-14T00:26:27.151Z,103214.56
2023-02-14T00:28:54.231Z,103219.00
2023-02-14T00:31:24.255Z,103212.78
2023-02-14T00:33:51.303Z,103209.34
2023-02-14T00:36:20.215Z,103206.69
2023-02-14T00:38:47.250Z,103205.81
2023-02-14T00:41:19.566Z,103198.75
2023-02-14T00:43:47.855Z,103195.31
2023-02-14T00:46:16.473Z,103196.25
2023-02-14T00:48:43.689Z,103194.53
2023-02-14T00:51:11.380Z,103188.38
2023-02-14T00:53:38.597Z,103192.78
2023-02-14T00:56:06.548Z,103187.53
2023-02-14T00:58:33.582Z,103184.13
2023-02-14T01:01:01.116Z,103189.44
2023-02-14T01:03:32.550Z,103187.72
2023-02-14T01:06:00.352Z,103180.69
2023-02-14T01:08:27.781Z,103189.56
2023-02-14T01:10:54.868Z,103190.47
2023-02-14T01:13:31.746Z,103189.63
2023-02-14T01:15:58.792Z,103193.25
2023-02-14T01:18:27.485Z,103187.06
2023-02-14T01:21:09.696Z,103186.22
2023-02-14T01:23:39.903Z,103188.13
2023-02-14T01:26:08.645Z,103194.34
2023-02-14T01:28:36.424Z,103186.50
2023-02-14T01:31:18.759Z,103179.41
2023-02-14T01:33:53.892Z,103174.97
2023-02-14T01:36:27.391Z,103170.63
2023-02-14T01:38:59.164Z,103174.09
2023-02-14T01:41:31.291Z,103173.28
2023-02-14T01:44:05.266Z,103173.28
2023-02-14T01:46:37.669Z,103175.09
2023-02-14T01:49:28.083Z,103169.78
2023-02-14T01:52:04.374Z,103172.50
2023-02-14T01:54:33.777Z,103167.25
2023-02-14T01:57:08.260Z,103164.59
2023-02-14T01:59:37.282Z,103174.53
2023-02-14T02:02:05.598Z,103171.97
2023-02-14T02:04:38.461Z,103171.16
2023-02-14T02:07:10.450Z,103169.41
2023-02-14T02:09:52.864Z,103170.31
2023-02-14T02:12:20.352Z,103165.06
2023-02-14T02:14:49.936Z,103158.88
2023-02-14T02:17:43.807Z,103153.56
2023-02-14T02:20:23.115Z,103151.84
2023-02-14T02:23:09.013Z,103143.88
2023-02-14T02:25:36.240Z,103149.28
2023-02-14T02:28:33.641Z,103143.16
2023-02-14T02:31:18.972Z,103148.63
2023-02-14T02:34:08.949Z,103149.56
2023-02-14T02:37:10.402Z,103143.50
2023-02-14T02:40:29.491Z,103140.03
2023-02-14T02:43:15.197Z,103147.22
2023-02-14T02:46:26.909Z,103143.78
2023-02-14T02:49:07.165Z,103135.84
2023-02-14T02:52:03.153Z,103137.75
2023-02-14T02:54:45.035Z,103136.06
2023-02-14T02:57:36.844Z,103130.78
2023-02-14T03:00:07.821Z,103143.16
2023-02-14T03:02:59.562Z,103134.34
2023-02-14T03:05:30.739Z,103126.50
2023-02-14T03:07:58.054Z,103130.09
2023-02-14T03:10:38.786Z,103131.06
2023-02-14T03:13:14.750Z,103132.91
2023-02-14T03:15:41.692Z,103138.31
2023-02-14T03:18:32.187Z,103139.13
2023-02-14T03:21:23.487Z,103144.50
2023-02-14T03:24:19.669Z,103139.28
2023-02-14T03:26:54.146Z,103140.25
2023-02-14T03:29:43.559Z,103134.06
2023-02-14T03:32:21.541Z,103142.06
2023-02-14T03:34:56.993Z,103134.16
2023-02-14T03:37:34.040Z,103137.69
2023-02-14T03:40:22.078Z,103143.03
2023-02-14T03:42:57.528Z,103144.78
2023-02-14T03:45:41.962Z,103143.00
2023-02-14T03:48:13.397Z,103136.81
2023-02-14T03:50:42.978Z,103132.41
2023-02-14T03:53:12.876Z,103135.88
2023-02-14T03:55:58.627Z,103140.28
2023-02-14T03:58:51.943Z,103135.84
2023-02-14T04:01:21.881Z,103142.06
2023-02-14T04:03:50.538Z,103142.09
2023-02-14T04:06:22.826Z,103146.53
2023-02-14T04:08:50.817Z,103143.00
2023-02-14T04:11:17.752Z,103137.69
2023-02-14T04:13:44.781Z,103142.13
2023-02-14T04:16:11.744Z,103146.63
2023-02-14T04:18:57.454Z,103143.97
2023-02-14T04:21:24.417Z,103145.75
2023-02-14T04:23:51.417Z,103147.50
2023-02-14T04:26:18.553Z,103144.78
2023-02-14T04:28:45.546Z,103143.91
2023-02-14T04:31:12.596Z,103135.06
2023-02-14T04:33:39.705Z,103134.19
2023-02-14T04:36:07.076Z,103143.03
2023-02-14T04:38:34.070Z,103138.66
2023-02-14T04:41:01.507Z,103144.84
2023-02-14T04:43:28.959Z,103134.25
2023-02-14T04:45:55.878Z,103147.50
2023-02-14T04:48:22.958Z,103141.31
2023-02-14T04:50:55.908Z,103144.84
2023-02-14T04:53:23.134Z,103140.44
2023-02-14T04:55:50.674Z,103142.19
2023-02-14T04:58:18.178Z,103145.75
2023-02-14T05:00:45.250Z,103137.88
2023-02-14T05:03:12.259Z,103146.66
2023-02-14T05:05:39.277Z,103143.16
2023-02-14T05:08:06.270Z,103141.41
2023-02-14T05:10:33.257Z,103141.41
2023-02-14T05:13:01.426Z,103132.56
2023-02-14T05:15:28.404Z,103152.00
2023-02-14T05:17:55.389Z,103138.78
2023-02-14T05:20:22.537Z,103147.69
2023-02-14T05:22:49.430Z,103147.63
2023-02-14T05:25:16.437Z,103130.91
2023-02-14T05:27:43.448Z,103142.38
2023-02-14T05:30:11.226Z,103138.84
2023-02-14T05:32:38.163Z,103144.13
2023-02-14T05:35:05.423Z,103137.97
2023-02-14T05:37:32.343Z,103141.56
2023-02-14T05:39:59.439Z,103139.81
2023-02-14T05:42:26.401Z,103136.28
2023-02-14T05:44:53.332Z,103141.56
2023-02-14T05:47:20.230Z,103145.13
2023-02-14T05:49:47.173Z,103136.31
2023-02-14T05:52:14.114Z,103138.06
2023-02-14T05:54:41.087Z,103131.88
2023-02-14T05:57:08.015Z,103135.47
2023-02-14T05:59:35.118Z,103139.91
2023-02-14T06:02:02.133Z,103139.97
2023-02-14T06:04:29.139Z,103148.81
2023-02-14T06:06:56.073Z,103148.97
2023-02-14T06:09:23.001Z,103141.91
2023-02-14T06:11:49.975Z,103143.78
2023-02-14T06:14:16.954Z,103143.84
2023-02-14T06:16:43.987Z,103152.75
2023-02-14T06:19:10.940Z,103146.63
2023-02-14T06:21:37.971Z,103143.97
2023-02-14T06:24:05.007Z,103146.66
2023-02-14T06:26:33.315Z,103156.44
2023-02-14T06:29:00.240Z,103152.09
2023-02-14T06:31:27.293Z,103162.81
2023-02-14T06:33:55.182Z,103163.69
2023-02-14T06:36:23.852Z,103160.19
2023-02-14T06:38:51.031Z,103166.34
2023-02-14T06:41:18.020Z,103169.94
2023-02-14T06:43:48.647Z,103172.59
2023-02-14T06:46:16.780Z,103177.88
2023-02-14T06:48:44.414Z,103184.91
2023-02-14T06:51:11.718Z,103182.28
2023-02-14T06:53:38.848Z,103184.91
2023-02-14T06:56:06.570Z,103188.47
2023-02-14T06:58:33.645Z,103198.13
2023-02-14T07:01:00.987Z,103193.41
2023-02-14T07:03:28.180Z,103189.28
2023-02-14T07:05:55.526Z,103191.25
2023-02-14T07:08:23.364Z,103196.88
2023-02-14T07:10:51.739Z,103201.78
2023-02-14T07:13:18.631Z,103201.84
2023-02-14T07:15:47.329Z,103202.84
2023-02-14T07:18:14.385Z,103205.63
2023-02-14T07:20:41.452Z,103198.53
2023-02-14T07:23:08.303Z,103211.00
2023-02-14T07:25:35.405Z,103210.34
2023-02-14T07:28:03.074Z,103212.00
2023-02-14T07:30:30.088Z,103216.69
2023-02-14T07:32:57.992Z,103221.81
2023-02-14T07:35:25.207Z,103218.22
2023-02-14T07:37:52.263Z,103219.81
2023-02-14T07:40:22.525Z,103224.69
2023-02-14T07:42:57.001Z,103218.53
2023-02-14T07:45:25.859Z,103227.41
2023-02-14T07:47:55.237Z,103217.81
2023-02-14T07:50:23.684Z,103216.72
2023-02-14T07:52:50.799Z,103217.47
2023-02-14T07:55:19.396Z,103213.81
2023-02-14T07:57:48.560Z,103209.66
2023-02-14T08:00:15.843Z,103206.22
2023-02-14T08:02:42.755Z,103207.59
2023-02-14T08:05:10.161Z,103207.53
2023-02-14T08:07:37.147Z,103206.75
2023-02-14T08:10:04.502Z,103209.06
2023-02-14T08:12:50.204Z,103209.16
2023-02-14T08:15:35.855Z,103212.84
2023-02-14T08:18:03.087Z,103212.53
2023-02-14T08:20:31.927Z,103204.34
2023-02-14T08:22:59.006Z,103207.06
2023-02-14T08:25:25.937Z,103215.31
2023-02-14T08:27:52.782Z,103206.34
2023-02-14T08:30:19.684Z,103212.53
2023-02-14T08:32:46.969Z,103205.44
2023-02-14T08:35:14.542Z,103201.91
2023-02-14T08:37:41.490Z,103198.75
2023-02-14T08:40:08.896Z,103190.25
2023-02-14T08:42:36.069Z,103199.13
2023-02-14T08:45:03.104Z,103194.78
2023-02-14T08:47:35.898Z,103193.44
2023-02-14T08:50:04.572Z,103195.69
2023-02-14T08:52:31.628Z,103200.19
2023-02-14T08:54:59.303Z,103194.63
2023-02-14T08:57:27.798Z,103201.34
2023-02-14T08:59:54.874Z,103209.00
2023-02-14T09:02:24.057Z,103205.41
2023-02-14T09:04:51.144Z,103215.38
2023-02-14T09:07:18.524Z,103208.38
2023-02-14T09:09:45.631Z,103201.31
2023-02-14T09:12:12.715Z,103201.09
2023-02-14T09:14:44.102Z,103199.16
2023-02-14T09:17:15.376Z,103185.84
2023-02-14T09:19:42.928Z,103188.25
2023-02-14T09:22:11.397Z,103188.19
2023-02-14T09:24:39.609Z,103188.38
2023-02-14T09:27:06.651Z,103184.19
2023-02-14T09:29:34.243Z,103193.94
2023-02-14T09:32:02.437Z,103189.88
2023-02-14T09:34:30.226Z,103195.13
2023-02-14T09:36:57.786Z,103189.94
2023-02-14T09:39:25.009Z,103183.09
2023-02-14T09:41:57.994Z,103178.97
2023-02-14T09:44:30.336Z,103168.00
2023-02-14T09:47:03.016Z,103175.88
2023-02-14T09:49:36.209Z,103170.13
2023-02-14T09:52:06.868Z,103169.03
2023-02-14T09:54:36.080Z,103174.38
2023-02-14T09:57:14.469Z,103164.28
2023-02-14T09:59:50.222Z,103162.34
2023-02-14T10:02:43.401Z,103167.66
2023-02-14T10:05:37.113Z,103163.06
2023-02-14T10:08:22.647Z,103156.31
2023-02-14T10:11:10.122Z,103162.03
2023-02-14T10:13:46.271Z,103159.03
2023-02-14T10:16:29.600Z,103156.09
2023-02-14T10:19:05.588Z,103158.25
2023-02-14T10:21:40.003Z,103152.94
2023-02-14T10:24:25.307Z,103151.41
2023-02-14T10:26:57.877Z,103153.97
2023-02-14T10:29:27.193Z,103150.38
2023-02-14T10:32:02.663Z,103143.66
2023-02-14T10:34:41.821Z,103151.22
2023-02-14T10:37:26.825Z,103142.06
2023-02-14T10:39:57.017Z,103147.16
2023-02-14T10:42:50.315Z,103137.31
2023-02-14T10:45:28.281Z,103135.84
2023-02-14T10:48:23.209Z,103133.06
2023-02-14T10:51:19.404Z,103122.44
2023-02-14T10:54:18.565Z,103128.69
2023-02-14T10:56:52.825Z,103125.28
2023-02-14T10:59:26.072Z,103114.75
2023-02-14T11:01:55.068Z,103107.81
2023-02-14T11:04:25.063Z,103108.06
2023-02-14T11:06:52.853Z,103097.41
2023-02-14T11:09:21.035Z,103102.41
2023-02-14T11:11:54.501Z,103097.28
2023-02-14T11:14:26.387Z,103101.84
2023-02-14T11:16:54.520Z,103095.09
2023-02-14T11:19:29.875Z,103096.56
2023-02-14T11:21:59.773Z,103084.28
2023-02-14T11:24:29.319Z,103071.47
2023-02-14T11:27:00.539Z,103074.59
2023-02-14T11:29:45.190Z,103066.66
2023-02-14T11:32:28.607Z,103062.63
2023-02-14T11:35:08.248Z,103053.75
2023-02-14T11:37:49.935Z,103053.81
2023-02-14T11:40:36.589Z,103052.13
2023-02-14T11:43:15.630Z,103038.94
2023-02-14T11:45:44.557Z,103040.94
2023-02-14T11:48:37.835Z,103037.88
2023-02-14T11:51:11.032Z,103029.47
2023-02-14T11:53:49.004Z,103033.22
2023-02-14T11:56:18.227Z,103025.72
2023-02-14T11:58:45.148Z,103025.59
2023-02-14T12:01:22.307Z,103020.69
2023-02-14T12:03:50.624Z,103015.44
2023-02-14T12:06:30.515Z,103008.66
2023-02-14T12:09:22.798Z,103012.22
2023-02-14T12:11:57.629Z,103013.25
2023-02-14T12:14:29.637Z,103011.00
2023-02-14T12:17:35.829Z,103014.75
2023-02-14T12:20:19.686Z,103013.94
2023-02-14T12:23:07.475Z,103010.19
2023-02-14T12:25:50.752Z,102999.06
2023-02-14T12:28:27.781Z,102996.69
2023-02-14T12:30:54.776Z,103000.59
2023-02-14T12:33:23.594Z,103000.88
2023-02-14T12:35:59.592Z,103000.66
2023-02-14T12:38:32.523Z,102993.16
2023-02-14T12:41:36.992Z,102989.66
2023-02-14T12:44:16.836Z,102987.88
2023-02-14T12:47:15.717Z,102986.75
2023-02-14T12:49:49.483Z,102978.72
2023-02-14T12:52:28.392Z,102971.72
2023-02-14T12:55:17.150Z,102983.75
2023-02-14T12:57:46.938Z,102971.72
2023-02-14T13:00:35.224Z,102970.59
2023-02-14T13:03:39.262Z,102960.47
2023-02-14T13:06:47.283Z,102966.84
2023-02-14T13:09:47.857Z,102956.34
2023-02-14T13:12:46.091Z,102948.97
2023-02-14T13:15:13.131Z,102946.28
2023-02-14T13:17:47.560Z,102944.50
2023-02-14T13:20:26.084Z,102943.41
2023-02-14T13:22:56.005Z,102937.00
2023-02-14T13:25:32.030Z,102928.22
2023-02-14T13:28:01.998Z,102925.34
2023-02-14T13:30:35.286Z,102927.53
2023-02-14T13:33:09.596Z,102926.31
2023-02-14T13:35:37.681Z,102913.91
2023-02-14T13:38:08.656Z,102912.16
2023-02-14T13:40:36.623Z,102896.59
2023-02-14T13:43:04.112Z,102895.28
2023-02-14T13:45:37.774Z,102896.28
2023-02-14T13:48:13.981Z,102879.44
2023-02-14T13:51:06.285Z,102876.66
2023-02-14T13:53:41.942Z,102881.75
2023-02-14T13:56:11.907Z,102878.19
2023-02-14T13:58:52.656Z,102869.47
2023-02-14T14:01:50.774Z,102878.44
2023-02-14T14:04:27.957Z,102865.94
2023-02-14T14:07:04.147Z,102870.97
2023-02-14T14:09:43.740Z,102864.41
2023-02-14T14:12:29.287Z,102860.91
2023-02-14T14:15:04.962Z,102852.84
2023-02-14T14:17:33.685Z,102850.97
2023-02-14T14:20:02.543Z,102858.59
2023-02-14T14:22:29.690Z,102863.81
2023-02-14T14:25:01.139Z,102858.44
2023-02-14T14:27:35.552Z,102850.22
2023-02-14T14:30:07.496Z,102847.69
2023-02-14T14:32:37.423Z,102844.41
2023-02-14T14:35:17.069Z,102845.97
2023-02-14T14:37:53.105Z,102852.22
2023-02-14T14:40:25.694Z,102839.75
2023-02-14T14:42:54.345Z,102845.25
2023-02-14T14:45:27.419Z,102842.84
2023-02-14T14:48:00.585Z,102840.06
2023-02-14T14:50:35.969Z,102835.56
2023-02-14T14:53:11.893Z,102832.59
2023-02-14T14:55:45.823Z,102832.41
2023-02-14T14:58:32.816Z,102831.19
2023-02-14T15:00:59.904Z,102836.28
2023-02-14T15:03:28.513Z,102832.38
2023-02-14T15:06:19.196Z,102832.94
2023-02-14T15:08:48.245Z,102838.41
2023-02-14T15:11:48.278Z,102851.19
2023-02-14T15:14:22.593Z,102840.25
2023-02-14T15:16:57.780Z,102841.78
2023-02-14T15:19:34.858Z,102831.09
2023-02-14T15:22:07.805Z,102830.25
2023-02-14T15:24:38.438Z,102837.72
2023-02-14T15:27:05.675Z,102830.25
2023-02-14T15:29:33.464Z,102835.09
2023-02-14T15:32:03.241Z,102836.25
2023-02-14T15:34:36.230Z,102832.63
2023-02-14T15:37:07.013Z,102829.63
2023-02-14T15:39:39.156Z,102828.16
2023-02-14T15:42:06.868Z,102819.50
2023-02-14T15:44:34.026Z,102823.94
2023-02-14T15:47:03.984Z,102827.88
2023-02-14T15:49:36.008Z,102822.50
2023-02-14T15:52:05.925Z,102820.38
2023-02-14T15:54:45.500Z,102818.41
2023-02-14T15:57:27.677Z,102815.50
2023-02-14T15:59:55.224Z,102813.41
2023-02-14T16:02:38.830Z,102816.31
2023-02-14T16:05:26.242Z,102808.56
2023-02-14T16:08:29.581Z,102807.22
2023-02-14T16:11:01.774Z,102811.16
2023-02-14T16:13:35.155Z,102814.88
2023-02-14T16:16:11.356Z,102812.03
2023-02-14T16:18:49.263Z,102810.53
2023-02-14T16:21:25.867Z,102805.25
2023-02-14T16:24:08.174Z,102811.84
2023-02-14T16:26:38.323Z,102810.16
2023-02-14T16:29:07.297Z,102807.22
2023-02-14T16:31:34.929Z,102815.34
2023-02-14T16:34:02.037Z,102806.34
2023-02-14T16:36:34.098Z,102808.41
2023-02-14T16:39:05.395Z,102808.91
2023-02-14T16:41:34.444Z,102817.56
2023-02-14T16:44:01.341Z,102812.53
2023-02-14T16:46:32.971Z,102810.59
2023-02-14T16:49:00.104Z,102815.22
2023-02-14T16:51:32.889Z,102817.72
2023-02-14T16:54:03.039Z,102818.66
2023-02-14T16:56:38.099Z,102820.94
2023-02-14T16:59:05.266Z,102814.88
2023-02-14T17:01:32.746Z,102809.84
2023-02-14T17:04:00.819Z,102806.41
2023-02-14T17:06:31.598Z,102814.38
2023-02-14T17:09:03.017Z,102806.69
2023-02-14T17:11:32.434Z,102800.72
2023-02-14T17:13:59.634Z,102799.22
2023-02-14T17:16:27.185Z,102804.09
2023-02-14T17:18:54.258Z,102798.91
2023-02-14T17:21:23.252Z,102807.91
2023-02-14T17:23:52.772Z,102800.13
2023-02-14T17:26:20.087Z,102799.72
2023-02-14T17:28:47.423Z,102801.69
2023-02-14T17:31:14.670Z,102802.63
2023-02-14T17:33:41.762Z,102798.59
2023-02-14T17:36:12.148Z,102804.53
2023-02-14T17:38:40.636Z,102806.44
2023-02-14T17:41:17.013Z,102802.03
2023-02-14T17:43:44.010Z,102804.91
2023-02-14T17:46:11.688Z,102802.13
2023-02-14T17:48:38.587Z,102801.19
2023-02-14T17:51:07.448Z,102806.47
2023-02-14T17:53:35.141Z,102817.19
2023-02-14T17:56:07.368Z,102821.72
2023-02-14T17:58:35.592Z,102815.66
2023-02-14T18:01:11.402Z,102812.13
2023-02-14T18:03:39.929Z,102809.50
2023-02-14T18:06:08.051Z,102822.00
2023-02-14T18:08:41.030Z,102816.22
2023-02-14T18:11:10.730Z,102817.31
2023-02-14T18:13:38.699Z,102820.91
2023-02-14T18:16:11.508Z,102804.03
2023-02-14T18:18:39.339Z,102810.66
2023-02-14T18:21:09.338Z,102815.78
2023-02-14T18:23:37.613Z,102815.50
2023-02-14T18:26:10.133Z,102815.28
2023-02-14T18:28:37.126Z,102811.91
2023-02-14T18:31:12.699Z,102813.88
2023-02-14T18:33:39.858Z,102817.53
2023-02-14T18:36:11.979Z,102821.06
2023-02-14T18:38:40.688Z,102816.75
2023-02-14T18:41:10.769Z,102822.88
2023-02-14T18:43:38.697Z,102813.88
2023-02-14T18:46:08.364Z,102820.16
2023-02-14T18:48:36.042Z,102828.75
2023-02-14T18:51:11.609Z,102823.19
2023-02-14T18:53:39.590Z,102826.00
2023-02-14T18:56:08.519Z,102824.34
2023-02-14T18:58:36.143Z,102824.13
2023-02-14T19:01:10.111Z,102817.03
2023-02-14T19:03:40.542Z,102817.91
2023-02-14T19:06:08.591Z,102816.09
2023-02-14T19:08:37.740Z,102820.53
2023-02-14T19:11:10.114Z,102817.91
2023-02-14T19:13:37.492Z,102817.31
2023-02-14T19:16:13.073Z,102816.38
2023-02-14T19:18:40.409Z,102821.06
2023-02-14T19:21:20.076Z,102813.97
2023-02-14T19:23:47.406Z,102816.66
2023-02-14T19:26:18.034Z,102817.47
2023-02-14T19:28:46.880Z,102815.72
2023-02-14T19:31:15.338Z,102810.38
2023-02-14T19:33:46.680Z,102811.25
2023-02-14T19:36:16.876Z,102813.13
2023-02-14T19:38:46.135Z,102809.66
2023-02-14T19:41:29.908Z,102815.00
2023-02-14T19:43:58.457Z,102815.13
2023-02-14T19:46:26.719Z,102810.81
2023-02-14T19:48:53.887Z,102812.69
2023-02-14T19:51:25.850Z,102813.75
2023-02-14T19:53:54.159Z,102814.19
2023-02-14T19:56:22.996Z,102815.94
2023-02-14T19:58:51.570Z,102816.09
2023-02-14T20:01:36.233Z,102816.28
2023-02-14T20:04:04.746Z,102813.94
2023-02-14T20:06:31.874Z,102807.84
2023-02-14T20:08:59.094Z,102809.84
2023-02-14T20:11:36.430Z,102801.91
2023-02-14T20:14:05.435Z,102814.47
2023-02-14T20:16:34.363Z,102809.25
2023-02-14T20:19:03.563Z,102819.94
2023-02-14T20:21:30.529Z,102805.03
2023-02-14T20:24:06.960Z,102814.91
2023-02-14T20:26:39.529Z,102807.94
2023-02-14T20:29:07.568Z,102805.47
2023-02-14T20:31:35.172Z,102808.34
2023-02-14T20:34:02.982Z,102812.09
2023-02-14T20:36:30.885Z,102806.06
2023-02-14T20:38:59.812Z,102810.63
2023-02-14T20:41:28.003Z,102808.75
2023-02-14T20:43:55.829Z,102814.22
2023-02-14T20:46:23.627Z,102808.94
2023-02-14T20:48:51.110Z,102808.16
2023-02-14T20:51:20.549Z,102817.00
2023-02-14T20:53:51.476Z,102826.09
2023-02-14T20:56:18.945Z,102818.94
2023-02-14T20:58:45.890Z,102803.13
2023-02-14T21:01:21.534Z,102802.34
2023-02-14T21:03:51.055Z,102804.25
2023-02-14T21:06:20.111Z,102806.94
2023-02-14T21:08:47.744Z,102804.34
2023-02-14T21:11:17.247Z,102809.94
2023-02-14T21:13:44.433Z,102810.00
2023-02-14T21:16:16.536Z,102803.09
2023-02-14T21:18:51.818Z,102806.84
2023-02-14T21:21:25.902Z,102801.63
2023-02-14T21:23:54.242Z,102799.91
2023-02-14T21:26:21.449Z,102800.91
2023-02-14T21:28:48.884Z,102802.72
2023-02-14T21:31:20.916Z,102796.69
2023-02-14T21:33:57.543Z,102791.47
2023-02-14T21:36:27.013Z,102790.59
2023-02-14T21:38:58.519Z,102795.09
2023-02-14T21:41:28.200Z,102800.53
2023-02-14T21:43:58.411Z,102797.06
2023-02-14T21:46:30.836Z,102787.31
2023-02-14T21:49:18.254Z,102789.25
2023-02-14T21:51:46.380Z,102790.22
2023-02-14T21:54:14.124Z,102792.91
2023-02-14T21:56:44.416Z,102795.56
2023-02-14T21:59:12.463Z,102797.47
2023-02-14T22:01:41.727Z,102792.28
2023-02-14T22:04:10.311Z,102784.34
2023-02-14T22:06:39.483Z,102792.47
2023-02-14T22:09:07.069Z,102794.22
2023-02-14T22:11:34.577Z,102799.69
2023-02-14T22:14:01.727Z,102799.53
2023-02-14T22:16:28.824Z,102797.78
2023-02-14T22:18:55.928Z,102802.28
2023-02-14T22:21:25.111Z,102804.09
2023-02-14T22:23:52.476Z,102803.28
2023-02-14T22:26:25.927Z,102804.19
2023-02-14T22:28:57.266Z,102796.31
2023-02-14T22:31:25.601Z,102798.31
2023-02-14T22:33:53.311Z,102802.03
2023-02-14T22:36:20.808Z,102802.09
2023-02-14T22:38:47.787Z,102796.75
2023-02-14T22:41:17.552Z,102798.50
2023-02-14T22:43:45.750Z,102805.81
2023-02-14T22:46:19.546Z,102810.22
2023-02-14T22:48:48.356Z,102794.47
2023-02-14T22:51:25.225Z,102806.94
2023-02-14T22:53:54.845Z,102800.84
2023-02-14T22:56:27.565Z,102804.44
2023-02-14T22:58:56.831Z,102799.09
2023-02-14T23:01:24.836Z,102799.25
2023-02-14T23:03:57.251Z,102801.91
2023-02-14T23:06:26.191Z,102798.53
2023-02-14T23:08:53.933Z,102800.34
2023-02-14T23:11:23.930Z,102796.88
2023-02-14T23:14:09.825Z,102801.34
2023-02-14T23:16:55.625Z,102799.81
2023-02-14T23:19:43.724Z,102798.06
2023-02-14T23:22:12.420Z,102796.38
2023-02-14T23:24:39.484Z,102791.03
2023-02-14T23:27:07.646Z,102791.97
2023-02-14T23:29:35.568Z,102800.88
2023-02-14T23:32:02.750Z,102793.88
2023-02-14T23:34:32.094Z,102789.50
2023-02-14T23:36:59.762Z,102789.38
2023-02-14T23:39:26.768Z,102793.00
2023-02-14T23:41:54.022Z,102785.94
2023-02-14T23:44:28.475Z,102782.38
2023-02-14T23:46:58.153Z,102775.41
2023-02-14T23:49:26.356Z,102767.41
2023-02-14T23:51:55.269Z,102769.09
2023-02-14T23:54:24.238Z,102763.00
2023-02-14T23:56:52.650Z,102763.78
2023-02-14T23:59:20.748Z,102763.00
